Aviation Digital Data Service (ADDS)

Output produced by METARs form (1337 UTC 17 September 2019)
found at http://www.aviationweather.gov/metar/data/
 
VTUU 171300Z 00000KT 9000 NSC 28/24 Q1007 NOSIG
VTUU 171200Z VRB02KT 9000 NSC 29/23 Q1007 NOSIG
VTUU 171100Z 35003KT 310V040 9000 FEW020CB SCT100 32/23 Q1006 NOSIG
VTUU 171030Z 01004KT 330V070 9000 NSC 32/23 Q1005 NOSIG
VTUU 171000Z 02006KT 9000 FEW035 33/23 Q1005 NOSIG
VTUU 170900Z 36004KT 300V030 9999 FEW035 33/24 Q1005 NOSIG
VTUU 170800Z 06004KT 360V120 9999 SCT035 33/23 Q1005 NOSIG
VTUU 170700Z 06003KT 350V140 9999 SCT030 32/24 Q1006 NOSIG
VTUU 170600Z VRB03KT 9999 SCT030 32/24 Q1007 NOSIG
VTUU 170500Z 05005KT 340V150 9999 BKN030 32/24 Q1008 NOSIG
VTUU 170400Z VRB05KT 9999 SCT025 31/25 Q1009 NOSIG
VTUU 170300Z 13005KT 050V220 9999 SCT025 30/25 Q1009 NOSIG
VTUU 170200Z 13005KT 080V230 9999 SCT025 29/25 Q1009 NOSIG
VTUU 170100Z 19004KT 120V230 9999 SCT025 29/25 Q1009 NOSIG
VTUU 170000Z 20003KT 140V240 9999 SCT022 27/24 Q1008 NOSIG
VTUU 162330Z 21003KT 180V240 9999 FEW024 26/24 Q1008 NOSIG
VTUU 162300Z VRB02KT 9999 FEW008 SCT028 26/24 Q1007 NOSIG
VTUU 162200Z VRB03KT 9999 BKN028 26/25 Q1007 NOSIG
VTUU 162100Z 13003KT 080V220 9999 BKN030 27/25 Q1007 NOSIG
VTUU 162000Z 09001KT 9999 BKN038 27/26 Q1007 NOSIG
VTUU 161900Z 07003KT 9999 BKN038 27/26 Q1007 NOSIG
VTUU 161800Z VRB02KT 9999 FEW035 SCT100 27/25 Q1007 NOSIG
VTUU 161700Z VRB02KT 9999 FEW035 SCT100 27/25 Q1007 NOSIG
VTUU 161600Z 22002KT 9999 FEW035 SCT100 27/25 Q1008 NOSIG
VTUU 161500Z 22003KT 9999 FEW035 SCT090 28/26 Q1007 NOSIG
VTUU 161400Z 22003KT 9999 FEW035 28/25 Q1007 NOSIG
TAF VTUU 171100Z 1712/1812 04004KT 9999 SCT030 
     TEMPO 1810/1812 VRB15KT 5000 TSRA FEW018CB BKN020